sensor_id;sensor_type;location;lat;lon;timestamp;P1;durP1;ratioP1;P2;durP2;ratioP2
16436;SDS011;8328;52.206;21.006;2023-12-14T00:01:21;32.10;;;15.43;;
16436;SDS011;8328;52.206;21.006;2023-12-14T00:03:48;28.20;;;14.07;;
16436;SDS011;8328;52.206;21.006;2023-12-14T00:06:14;28.43;;;14.13;;
16436;SDS011;8328;52.206;21.006;2023-12-14T00:08:40;30.03;;;15.30;;
16436;SDS011;8328;52.206;21.006;2023-12-14T00:11:10;31.50;;;16.30;;
16436;SDS011;8328;52.206;21.006;2023-12-14T00:13:36;36.13;;;16.63;;
16436;SDS011;8328;52.206;21.006;2023-12-14T00:16:03;30.17;;;14.87;;
16436;SDS011;8328;52.206;21.006;2023-12-14T00:18:29;34.73;;;16.70;;
16436;SDS011;8328;52.206;21.006;2023-12-14T00:20:55;36.03;;;15.50;;
16436;SDS011;8328;52.206;21.006;2023-12-14T00:23:22;28.47;;;14.67;;
16436;SDS011;8328;52.206;21.006;2023-12-14T00:25:48;33.47;;;15.73;;
16436;SDS011;8328;52.206;21.006;2023-12-14T00:28:14;35.40;;;16.30;;
16436;SDS011;8328;52.206;21.006;2023-12-14T00:30:40;36.27;;;16.73;;
16436;SDS011;8328;52.206;21.006;2023-12-14T00:33:06;34.80;;;15.23;;
16436;SDS011;8328;52.206;21.006;2023-12-14T00:35:31;36.50;;;15.83;;
16436;SDS011;8328;52.206;21.006;2023-12-14T00:37:58;32.07;;;15.30;;
16436;SDS011;8328;52.206;21.006;2023-12-14T00:40:24;34.30;;;15.07;;
16436;SDS011;8328;52.206;21.006;2023-12-14T00:42:50;33.60;;;16.17;;
16436;SDS011;8328;52.206;21.006;2023-12-14T00:45:16;37.27;;;16.37;;
16436;SDS011;8328;52.206;21.006;2023-12-14T00:47:42;35.97;;;15.87;;
16436;SDS011;8328;52.206;21.006;2023-12-14T00:50:08;33.17;;;15.40;;
16436;SDS011;8328;52.206;21.006;2023-12-14T00:52:34;34.57;;;15.80;;
16436;SDS011;8328;52.206;21.006;2023-12-14T00:55:01;34.03;;;16.03;;
16436;SDS011;8328;52.206;21.006;2023-12-14T00:57:27;31.70;;;14.70;;
16436;SDS011;8328;52.206;21.006;2023-12-14T00:59:53;32.60;;;15.70;;
16436;SDS011;8328;52.206;21.006;2023-12-14T01:02:19;30.80;;;14.70;;
16436;SDS011;8328;52.206;21.006;2023-12-14T01:04:45;35.67;;;15.57;;
16436;SDS011;8328;52.206;21.006;2023-12-14T01:07:11;28.97;;;14.63;;
16436;SDS011;8328;52.206;21.006;2023-12-14T01:09:37;28.67;;;14.03;;
16436;SDS011;8328;52.206;21.006;2023-12-14T01:12:03;29.80;;;13.93;;
16436;SDS011;8328;52.206;21.006;2023-12-14T01:14:29;33.33;;;14.83;;
16436;SDS011;8328;52.206;21.006;2023-12-14T01:16:55;28.73;;;13.73;;
16436;SDS011;8328;52.206;21.006;2023-12-14T01:19:21;30.77;;;13.67;;
16436;SDS011;8328;52.206;21.006;2023-12-14T01:21:48;25.80;;;12.60;;
16436;SDS011;8328;52.206;21.006;2023-12-14T01:24:13;26.93;;;12.97;;
16436;SDS011;8328;52.206;21.006;2023-12-14T01:26:40;25.67;;;12.83;;
16436;SDS011;8328;52.206;21.006;2023-12-14T01:29:06;24.87;;;12.43;;
16436;SDS011;8328;52.206;21.006;2023-12-14T01:31:32;30.83;;;13.03;;
16436;SDS011;8328;52.206;21.006;2023-12-14T01:33:58;28.03;;;13.33;;
16436;SDS011;8328;52.206;21.006;2023-12-14T01:36:24;34.37;;;14.50;;
16436;SDS011;8328;52.206;21.006;2023-12-14T01:38:51;25.20;;;12.40;;
16436;SDS011;8328;52.206;21.006;2023-12-14T01:41:17;27.30;;;13.13;;
16436;SDS011;8328;52.206;21.006;2023-12-14T01:43:44;30.97;;;13.27;;
16436;SDS011;8328;52.206;21.006;2023-12-14T01:46:10;27.73;;;12.67;;
16436;SDS011;8328;52.206;21.006;2023-12-14T01:48:36;24.47;;;12.00;;
16436;SDS011;8328;52.206;21.006;2023-12-14T01:51:02;24.13;;;12.23;;
16436;SDS011;8328;52.206;21.006;2023-12-14T01:53:28;26.07;;;11.37;;
16436;SDS011;8328;52.206;21.006;2023-12-14T01:55:55;23.70;;;11.37;;
16436;SDS011;8328;52.206;21.006;2023-12-14T01:58:21;29.60;;;13.17;;
16436;SDS011;8328;52.206;21.006;2023-12-14T02:03:51;27.60;;;11.80;;
16436;SDS011;8328;52.206;21.006;2023-12-14T02:06:19;26.90;;;12.53;;
16436;SDS011;8328;52.206;21.006;2023-12-14T02:08:45;25.07;;;12.43;;
16436;SDS011;8328;52.206;21.006;2023-12-14T02:11:11;20.90;;;11.57;;
16436;SDS011;8328;52.206;21.006;2023-12-14T02:13:38;27.63;;;12.07;;
16436;SDS011;8328;52.206;21.006;2023-12-14T02:16:04;28.60;;;13.20;;
16436;SDS011;8328;52.206;21.006;2023-12-14T02:18:30;30.43;;;12.83;;
16436;SDS011;8328;52.206;21.006;2023-12-14T02:20:56;30.10;;;13.13;;
16436;SDS011;8328;52.206;21.006;2023-12-14T02:23:22;28.33;;;13.23;;
16436;SDS011;8328;52.206;21.006;2023-12-14T02:25:48;29.93;;;12.73;;
16436;SDS011;8328;52.206;21.006;2023-12-14T02:28:14;26.97;;;12.90;;
16436;SDS011;8328;52.206;21.006;2023-12-14T02:30:40;26.10;;;12.37;;
16436;SDS011;8328;52.206;21.006;2023-12-14T02:33:06;26.57;;;12.57;;
16436;SDS011;8328;52.206;21.006;2023-12-14T02:35:32;28.97;;;13.50;;
16436;SDS011;8328;52.206;21.006;2023-12-14T02:37:58;30.97;;;13.23;;
16436;SDS011;8328;52.206;21.006;2023-12-14T02:40:24;36.57;;;14.30;;
16436;SDS011;8328;52.206;21.006;2023-12-14T02:42:50;29.00;;;13.80;;
16436;SDS011;8328;52.206;21.006;2023-12-14T02:45:16;31.60;;;13.27;;
16436;SDS011;8328;52.206;21.006;2023-12-14T02:47:42;31.17;;;14.40;;
16436;SDS011;8328;52.206;21.006;2023-12-14T02:50:08;28.67;;;13.83;;
16436;SDS011;8328;52.206;21.006;2023-12-14T02:52:35;29.63;;;13.83;;
16436;SDS011;8328;52.206;21.006;2023-12-14T02:55:01;38.33;;;15.67;;
16436;SDS011;8328;52.206;21.006;2023-12-14T02:57:27;30.13;;;13.30;;
16436;SDS011;8328;52.206;21.006;2023-12-14T02:59:53;39.80;;;16.70;;
16436;SDS011;8328;52.206;21.006;2023-12-14T03:02:19;36.40;;;15.23;;
16436;SDS011;8328;52.206;21.006;2023-12-14T03:04:45;41.97;;;15.67;;
16436;SDS011;8328;52.206;21.006;2023-12-14T03:07:11;34.80;;;13.63;;
16436;SDS011;8328;52.206;21.006;2023-12-14T03:09:39;37.53;;;14.17;;
16436;SDS011;8328;52.206;21.006;2023-12-14T03:12:09;32.77;;;14.20;;
16436;SDS011;8328;52.206;21.006;2023-12-14T03:14:35;37.43;;;15.40;;
16436;SDS011;8328;52.206;21.006;2023-12-14T03:17:01;35.80;;;15.13;;
16436;SDS011;8328;52.206;21.006;2023-12-14T03:19:28;38.47;;;15.20;;
16436;SDS011;8328;52.206;21.006;2023-12-14T03:21:54;32.70;;;14.63;;
16436;SDS011;8328;52.206;21.006;2023-12-14T03:24:20;29.40;;;12.27;;
16436;SDS011;8328;52.206;21.006;2023-12-14T03:26:46;40.40;;;14.53;;
16436;SDS011;8328;52.206;21.006;2023-12-14T03:29:12;33.27;;;13.80;;
16436;SDS011;8328;52.206;21.006;2023-12-14T03:31:38;30.97;;;14.03;;
16436;SDS011;8328;52.206;21.006;2023-12-14T03:34:05;36.73;;;13.17;;
16436;SDS011;8328;52.206;21.006;2023-12-14T03:36:31;31.63;;;13.50;;
16436;SDS011;8328;52.206;21.006;2023-12-14T03:38:57;29.70;;;13.43;;
16436;SDS011;8328;52.206;21.006;2023-12-14T03:41:23;33.10;;;13.00;;
16436;SDS011;8328;52.206;21.006;2023-12-14T03:43:49;32.27;;;12.70;;
16436;SDS011;8328;52.206;21.006;2023-12-14T03:46:15;36.30;;;12.97;;
16436;SDS011;8328;52.206;21.006;2023-12-14T03:48:41;31.40;;;13.43;;
16436;SDS011;8328;52.206;21.006;2023-12-14T03:51:07;29.60;;;12.33;;
16436;SDS011;8328;52.206;21.006;2023-12-14T03:53:33;32.07;;;13.57;;
16436;SDS011;8328;52.206;21.006;2023-12-14T03:55:59;34.17;;;13.73;;
16436;SDS011;8328;52.206;21.006;2023-12-14T03:58:25;31.30;;;12.83;;
16436;SDS011;8328;52.206;21.006;2023-12-14T04:00:52;30.13;;;12.90;;
16436;SDS011;8328;52.206;21.006;2023-12-14T04:03:18;31.07;;;13.43;;
16436;SDS011;8328;52.206;21.006;2023-12-14T04:05:44;29.33;;;12.10;;
16436;SDS011;8328;52.206;21.006;2023-12-14T04:08:10;29.40;;;12.80;;
16436;SDS011;8328;52.206;21.006;2023-12-14T04:10:36;38.30;;;14.20;;
16436;SDS011;8328;52.206;21.006;2023-12-14T04:13:02;33.63;;;13.60;;
16436;SDS011;8328;52.206;21.006;2023-12-14T04:15:28;26.27;;;11.87;;
16436;SDS011;8328;52.206;21.006;2023-12-14T04:17:54;37.30;;;13.97;;
16436;SDS011;8328;52.206;21.006;2023-12-14T04:20:20;31.53;;;13.53;;
16436;SDS011;8328;52.206;21.006;2023-12-14T04:22:46;36.83;;;13.77;;
16436;SDS011;8328;52.206;21.006;2023-12-14T04:25:13;27.13;;;11.80;;
16436;SDS011;8328;52.206;21.006;2023-12-14T04:27:39;31.57;;;12.87;;
16436;SDS011;8328;52.206;21.006;2023-12-14T04:30:05;29.20;;;13.17;;
16436;SDS011;8328;52.206;21.006;2023-12-14T04:32:35;30.93;;;13.30;;
16436;SDS011;8328;52.206;21.006;2023-12-14T04:35:01;36.53;;;13.23;;
16436;SDS011;8328;52.206;21.006;2023-12-14T04:37:28;29.73;;;12.70;;
16436;SDS011;8328;52.206;21.006;2023-12-14T04:39:55;28.67;;;12.90;;
16436;SDS011;8328;52.206;21.006;2023-12-14T04:42:21;31.47;;;12.67;;
16436;SDS011;8328;52.206;21.006;2023-12-14T04:44:47;30.70;;;13.20;;
16436;SDS011;8328;52.206;21.006;2023-12-14T04:47:13;30.00;;;12.57;;
16436;SDS011;8328;52.206;21.006;2023-12-14T04:49:39;33.40;;;12.97;;
16436;SDS011;8328;52.206;21.006;2023-12-14T04:52:06;29.33;;;11.97;;
16436;SDS011;8328;52.206;21.006;2023-12-14T04:54:32;27.60;;;12.53;;
16436;SDS011;8328;52.206;21.006;2023-12-14T04:57:00;33.50;;;11.70;;
16436;SDS011;8328;52.206;21.006;2023-12-14T04:59:26;26.67;;;11.57;;
16436;SDS011;8328;52.206;21.006;2023-12-14T05:01:52;24.13;;;10.77;;
16436;SDS011;8328;52.206;21.006;2023-12-14T05:04:18;28.80;;;11.30;;
16436;SDS011;8328;52.206;21.006;2023-12-14T05:06:44;28.03;;;11.93;;
16436;SDS011;8328;52.206;21.006;2023-12-14T05:09:10;29.13;;;12.67;;
16436;SDS011;8328;52.206;21.006;2023-12-14T05:11:37;27.87;;;12.50;;
16436;SDS011;8328;52.206;21.006;2023-12-14T05:14:04;28.63;;;11.67;;
16436;SDS011;8328;52.206;21.006;2023-12-14T05:16:31;27.27;;;12.37;;
16436;SDS011;8328;52.206;21.006;2023-12-14T05:18:57;25.03;;;11.17;;
16436;SDS011;8328;52.206;21.006;2023-12-14T05:21:24;32.13;;;12.97;;
16436;SDS011;8328;52.206;21.006;2023-12-14T05:23:50;29.70;;;14.13;;
16436;SDS011;8328;52.206;21.006;2023-12-14T05:26:16;27.57;;;12.53;;
16436;SDS011;8328;52.206;21.006;2023-12-14T05:28:42;29.53;;;12.53;;
16436;SDS011;8328;52.206;21.006;2023-12-14T05:31:08;33.10;;;13.03;;
16436;SDS011;8328;52.206;21.006;2023-12-14T05:33:38;27.60;;;12.37;;
16436;SDS011;8328;52.206;21.006;2023-12-14T05:36:04;27.73;;;11.50;;
16436;SDS011;8328;52.206;21.006;2023-12-14T05:38:35;29.07;;;11.73;;
16436;SDS011;8328;52.206;21.006;2023-12-14T05:41:01;29.67;;;12.53;;
16436;SDS011;8328;52.206;21.006;2023-12-14T05:43:28;25.37;;;11.10;;
16436;SDS011;8328;52.206;21.006;2023-12-14T05:45:54;32.40;;;13.07;;
16436;SDS011;8328;52.206;21.006;2023-12-14T05:48:20;30.93;;;12.50;;
16436;SDS011;8328;52.206;21.006;2023-12-14T05:50:46;33.60;;;14.60;;
16436;SDS011;8328;52.206;21.006;2023-12-14T05:53:12;34.37;;;13.67;;
16436;SDS011;8328;52.206;21.006;2023-12-14T05:55:39;28.47;;;12.10;;
16436;SDS011;8328;52.206;21.006;2023-12-14T05:58:06;27.40;;;12.23;;
16436;SDS011;8328;52.206;21.006;2023-12-14T06:00:33;29.93;;;11.93;;
16436;SDS011;8328;52.206;21.006;2023-12-14T06:03:00;32.83;;;11.63;;
16436;SDS011;8328;52.206;21.006;2023-12-14T06:05:26;30.40;;;11.30;;
16436;SDS011;8328;52.206;21.006;2023-12-14T06:07:52;37.00;;;15.13;;
16436;SDS011;8328;52.206;21.006;2023-12-14T06:10:19;32.03;;;13.40;;
16436;SDS011;8328;52.206;21.006;2023-12-14T06:12:45;30.87;;;12.13;;
16436;SDS011;8328;52.206;21.006;2023-12-14T06:15:11;35.10;;;14.13;;
16436;SDS011;8328;52.206;21.006;2023-12-14T06:17:37;31.40;;;13.27;;
16436;SDS011;8328;52.206;21.006;2023-12-14T06:20:04;31.83;;;13.03;;
16436;SDS011;8328;52.206;21.006;2023-12-14T06:22:33;31.37;;;14.10;;
16436;SDS011;8328;52.206;21.006;2023-12-14T06:25:00;31.33;;;13.73;;
16436;SDS011;8328;52.206;21.006;2023-12-14T06:27:26;35.53;;;13.73;;
16436;SDS011;8328;52.206;21.006;2023-12-14T06:29:52;36.17;;;14.73;;
16436;SDS011;8328;52.206;21.006;2023-12-14T06:32:18;38.57;;;14.07;;
16436;SDS011;8328;52.206;21.006;2023-12-14T06:34:44;31.47;;;12.70;;
16436;SDS011;8328;52.206;21.006;2023-12-14T06:37:10;31.77;;;13.33;;
16436;SDS011;8328;52.206;21.006;2023-12-14T06:39:36;36.13;;;13.77;;
16436;SDS011;8328;52.206;21.006;2023-12-14T06:42:04;34.37;;;13.63;;
16436;SDS011;8328;52.206;21.006;2023-12-14T06:44:30;33.77;;;15.23;;
16436;SDS011;8328;52.206;21.006;2023-12-14T06:46:56;39.60;;;17.37;;
16436;SDS011;8328;52.206;21.006;2023-12-14T06:49:23;31.93;;;13.93;;
16436;SDS011;8328;52.206;21.006;2023-12-14T06:51:49;42.97;;;19.17;;
16436;SDS011;8328;52.206;21.006;2023-12-14T06:54:15;32.40;;;14.20;;
16436;SDS011;8328;52.206;21.006;2023-12-14T06:56:41;30.57;;;15.00;;
16436;SDS011;8328;52.206;21.006;2023-12-14T06:59:07;31.23;;;13.30;;
16436;SDS011;8328;52.206;21.006;2023-12-14T07:01:33;32.07;;;15.23;;
16436;SDS011;8328;52.206;21.006;2023-12-14T07:03:59;35.57;;;15.60;;
16436;SDS011;8328;52.206;21.006;2023-12-14T07:06:25;31.67;;;14.43;;
16436;SDS011;8328;52.206;21.006;2023-12-14T07:08:51;42.37;;;18.53;;
16436;SDS011;8328;52.206;21.006;2023-12-14T07:11:17;35.70;;;14.57;;
16436;SDS011;8328;52.206;21.006;2023-12-14T07:13:44;33.03;;;14.90;;
16436;SDS011;8328;52.206;21.006;2023-12-14T07:16:11;27.83;;;12.07;;
16436;SDS011;8328;52.206;21.006;2023-12-14T07:18:37;35.87;;;14.60;;
16436;SDS011;8328;52.206;21.006;2023-12-14T07:21:04;37.47;;;15.73;;
16436;SDS011;8328;52.206;21.006;2023-12-14T07:23:31;36.30;;;14.80;;
16436;SDS011;8328;52.206;21.006;2023-12-14T07:26:00;39.37;;;16.53;;
16436;SDS011;8328;52.206;21.006;2023-12-14T07:28:29;31.37;;;14.10;;
16436;SDS011;8328;52.206;21.006;2023-12-14T07:30:57;32.40;;;13.60;;
16436;SDS011;8328;52.206;21.006;2023-12-14T07:33:23;44.07;;;16.07;;
16436;SDS011;8328;52.206;21.006;2023-12-14T07:35:49;33.00;;;14.17;;
16436;SDS011;8328;52.206;21.006;2023-12-14T07:38:15;35.07;;;14.97;;
16436;SDS011;8328;52.206;21.006;2023-12-14T07:40:41;39.63;;;16.80;;
16436;SDS011;8328;52.206;21.006;2023-12-14T07:43:07;34.67;;;15.00;;
16436;SDS011;8328;52.206;21.006;2023-12-14T07:45:33;32.33;;;13.63;;
16436;SDS011;8328;52.206;21.006;2023-12-14T07:47:59;33.07;;;14.90;;
16436;SDS011;8328;52.206;21.006;2023-12-14T07:50:25;37.03;;;16.13;;
16436;SDS011;8328;52.206;21.006;2023-12-14T07:52:51;34.33;;;15.97;;
16436;SDS011;8328;52.206;21.006;2023-12-14T07:55:17;32.77;;;14.73;;
16436;SDS011;8328;52.206;21.006;2023-12-14T07:57:44;33.87;;;14.03;;
16436;SDS011;8328;52.206;21.006;2023-12-14T08:00:10;34.70;;;14.07;;
16436;SDS011;8328;52.206;21.006;2023-12-14T08:02:36;30.97;;;12.57;;
16436;SDS011;8328;52.206;21.006;2023-12-14T08:05:02;36.63;;;14.97;;
16436;SDS011;8328;52.206;21.006;2023-12-14T08:07:28;34.83;;;15.03;;
16436;SDS011;8328;52.206;21.006;2023-12-14T08:09:57;36.70;;;15.77;;
16436;SDS011;8328;52.206;21.006;2023-12-14T08:12:23;27.50;;;13.20;;
16436;SDS011;8328;52.206;21.006;2023-12-14T08:14:49;29.40;;;13.20;;
16436;SDS011;8328;52.206;21.006;2023-12-14T08:17:15;25.40;;;12.33;;
16436;SDS011;8328;52.206;21.006;2023-12-14T08:19:41;26.83;;;11.83;;
16436;SDS011;8328;52.206;21.006;2023-12-14T08:22:08;27.87;;;12.83;;
16436;SDS011;8328;52.206;21.006;2023-12-14T08:24:38;24.50;;;12.00;;
16436;SDS011;8328;52.206;21.006;2023-12-14T08:27:05;23.73;;;13.07;;
16436;SDS011;8328;52.206;21.006;2023-12-14T08:29:31;20.77;;;10.83;;
16436;SDS011;8328;52.206;21.006;2023-12-14T08:31:57;25.57;;;11.83;;
16436;SDS011;8328;52.206;21.006;2023-12-14T08:34:27;22.73;;;10.83;;
16436;SDS011;8328;52.206;21.006;2023-12-14T08:36:53;19.07;;;10.07;;
16436;SDS011;8328;52.206;21.006;2023-12-14T08:39:19;20.90;;;10.20;;
16436;SDS011;8328;52.206;21.006;2023-12-14T08:41:45;19.67;;;10.43;;
16436;SDS011;8328;52.206;21.006;2023-12-14T08:44:12;23.47;;;11.63;;
16436;SDS011;8328;52.206;21.006;2023-12-14T08:46:42;24.97;;;11.93;;
16436;SDS011;8328;52.206;21.006;2023-12-14T08:49:10;21.63;;;11.90;;
16436;SDS011;8328;52.206;21.006;2023-12-14T08:51:36;24.63;;;11.47;;
16436;SDS011;8328;52.206;21.006;2023-12-14T08:54:03;24.53;;;13.33;;
16436;SDS011;8328;52.206;21.006;2023-12-14T08:56:29;19.40;;;9.67;;
16436;SDS011;8328;52.206;21.006;2023-12-14T08:58:55;27.13;;;12.23;;
16436;SDS011;8328;52.206;21.006;2023-12-14T09:01:21;25.27;;;11.73;;
16436;SDS011;8328;52.206;21.006;2023-12-14T09:03:48;24.97;;;12.00;;
16436;SDS011;8328;52.206;21.006;2023-12-14T09:06:15;22.77;;;11.37;;
16436;SDS011;8328;52.206;21.006;2023-12-14T09:08:42;21.33;;;10.03;;
16436;SDS011;8328;52.206;21.006;2023-12-14T09:11:08;24.90;;;11.00;;
16436;SDS011;8328;52.206;21.006;2023-12-14T09:13:34;29.57;;;12.60;;
16436;SDS011;8328;52.206;21.006;2023-12-14T09:16:00;25.63;;;12.07;;
16436;SDS011;8328;52.206;21.006;2023-12-14T09:18:26;23.23;;;10.90;;
16436;SDS011;8328;52.206;21.006;2023-12-14T09:20:52;25.23;;;12.40;;
16436;SDS011;8328;52.206;21.006;2023-12-14T09:23:18;21.23;;;10.53;;
16436;SDS011;8328;52.206;21.006;2023-12-14T09:25:45;25.57;;;11.90;;
16436;SDS011;8328;52.206;21.006;2023-12-14T09:28:10;23.30;;;9.77;;
16436;SDS011;8328;52.206;21.006;2023-12-14T09:30:36;28.00;;;13.40;;
16436;SDS011;8328;52.206;21.006;2023-12-14T09:33:02;24.20;;;11.10;;
16436;SDS011;8328;52.206;21.006;2023-12-14T09:35:28;22.37;;;10.73;;
16436;SDS011;8328;52.206;21.006;2023-12-14T09:37:55;22.97;;;10.10;;
16436;SDS011;8328;52.206;21.006;2023-12-14T09:40:21;21.80;;;9.63;;
16436;SDS011;8328;52.206;21.006;2023-12-14T09:42:48;19.87;;;8.87;;
16436;SDS011;8328;52.206;21.006;2023-12-14T09:45:14;20.87;;;8.93;;
16436;SDS011;8328;52.206;21.006;2023-12-14T09:47:42;18.10;;;9.40;;
16436;SDS011;8328;52.206;21.006;2023-12-14T09:50:11;17.00;;;9.03;;
16436;SDS011;8328;52.206;21.006;2023-12-14T09:52:39;21.33;;;9.40;;
16436;SDS011;8328;52.206;21.006;2023-12-14T09:55:10;17.03;;;8.53;;
16436;SDS011;8328;52.206;21.006;2023-12-14T09:57:36;20.63;;;9.20;;
16436;SDS011;8328;52.206;21.006;2023-12-14T10:00:02;17.20;;;8.47;;
16436;SDS011;8328;52.206;21.006;2023-12-14T10:02:31;20.37;;;9.27;;
16436;SDS011;8328;52.206;21.006;2023-12-14T10:04:57;15.40;;;8.40;;
16436;SDS011;8328;52.206;21.006;2023-12-14T10:07:23;18.00;;;8.70;;
16436;SDS011;8328;52.206;21.006;2023-12-14T10:09:49;22.07;;;10.23;;
16436;SDS011;8328;52.206;21.006;2023-12-14T10:12:15;14.80;;;7.83;;
16436;SDS011;8328;52.206;21.006;2023-12-14T10:14:42;15.70;;;8.33;;
16436;SDS011;8328;52.206;21.006;2023-12-14T10:17:16;16.97;;;7.47;;
16436;SDS011;8328;52.206;21.006;2023-12-14T10:19:47;16.07;;;7.67;;
16436;SDS011;8328;52.206;21.006;2023-12-14T10:22:14;15.63;;;7.73;;
16436;SDS011;8328;52.206;21.006;2023-12-14T10:24:42;12.43;;;6.83;;
16436;SDS011;8328;52.206;21.006;2023-12-14T10:27:09;12.17;;;6.60;;
16436;SDS011;8328;52.206;21.006;2023-12-14T10:29:39;14.20;;;7.03;;
16436;SDS011;8328;52.206;21.006;2023-12-14T10:32:06;12.50;;;6.27;;
16436;SDS011;8328;52.206;21.006;2023-12-14T10:34:34;13.93;;;7.20;;
16436;SDS011;8328;52.206;21.006;2023-12-14T10:37:00;15.73;;;8.03;;
16436;SDS011;8328;52.206;21.006;2023-12-14T10:39:29;13.87;;;7.17;;
16436;SDS011;8328;52.206;21.006;2023-12-14T10:41:57;19.50;;;8.53;;
16436;SDS011;8328;52.206;21.006;2023-12-14T10:44:27;17.80;;;8.53;;
16436;SDS011;8328;52.206;21.006;2023-12-14T10:46:57;16.63;;;8.23;;
16436;SDS011;8328;52.206;21.006;2023-12-14T10:49:24;18.60;;;8.30;;
16436;SDS011;8328;52.206;21.006;2023-12-14T10:51:54;16.40;;;8.67;;
16436;SDS011;8328;52.206;21.006;2023-12-14T10:54:23;19.60;;;10.43;;
16436;SDS011;8328;52.206;21.006;2023-12-14T10:56:59;24.80;;;10.97;;
16436;SDS011;8328;52.206;21.006;2023-12-14T10:59:25;20.10;;;10.30;;
16436;SDS011;8328;52.206;21.006;2023-12-14T11:01:54;22.47;;;11.97;;
16436;SDS011;8328;52.206;21.006;2023-12-14T11:04:26;28.03;;;13.30;;
16436;SDS011;8328;52.206;21.006;2023-12-14T11:06:53;25.27;;;14.40;;
16436;SDS011;8328;52.206;21.006;2023-12-14T11:09:21;25.63;;;13.77;;
16436;SDS011;8328;52.206;21.006;2023-12-14T11:14:23;26.43;;;13.10;;
16436;SDS011;8328;52.206;21.006;2023-12-14T11:16:53;20.20;;;10.87;;
16436;SDS011;8328;52.206;21.006;2023-12-14T11:21:49;26.20;;;12.67;;
16436;SDS011;8328;52.206;21.006;2023-12-14T11:24:51;29.80;;;12.43;;
16436;SDS011;8328;52.206;21.006;2023-12-14T11:27:19;27.77;;;14.17;;
16436;SDS011;8328;52.206;21.006;2023-12-14T11:29:50;23.43;;;11.87;;
16436;SDS011;8328;52.206;21.006;2023-12-14T11:32:18;27.00;;;13.80;;
16436;SDS011;8328;52.206;21.006;2023-12-14T11:34:45;26.97;;;13.30;;
16436;SDS011;8328;52.206;21.006;2023-12-14T11:37:12;27.23;;;13.30;;
16436;SDS011;8328;52.206;21.006;2023-12-14T11:39:38;28.93;;;14.40;;
16436;SDS011;8328;52.206;21.006;2023-12-14T11:42:05;28.97;;;12.77;;
16436;SDS011;8328;52.206;21.006;2023-12-14T11:44:36;31.33;;;13.17;;
16436;SDS011;8328;52.206;21.006;2023-12-14T11:47:02;22.20;;;11.10;;
16436;SDS011;8328;52.206;21.006;2023-12-14T11:49:28;28.27;;;13.10;;
16436;SDS011;8328;52.206;21.006;2023-12-14T11:51:56;26.70;;;12.33;;
16436;SDS011;8328;52.206;21.006;2023-12-14T11:54:22;23.13;;;11.13;;
16436;SDS011;8328;52.206;21.006;2023-12-14T11:56:48;23.27;;;11.90;;
16436;SDS011;8328;52.206;21.006;2023-12-14T11:59:17;26.13;;;11.63;;
16436;SDS011;8328;52.206;21.006;2023-12-14T12:01:54;24.93;;;11.93;;
16436;SDS011;8328;52.206;21.006;2023-12-14T12:04:21;24.07;;;10.37;;
16436;SDS011;8328;52.206;21.006;2023-12-14T12:06:47;22.40;;;9.77;;
16436;SDS011;8328;52.206;21.006;2023-12-14T12:09:13;21.50;;;10.60;;
16436;SDS011;8328;52.206;21.006;2023-12-14T12:11:39;20.73;;;9.90;;
16436;SDS011;8328;52.206;21.006;2023-12-14T12:14:05;20.30;;;9.53;;
16436;SDS011;8328;52.206;21.006;2023-12-14T12:16:31;22.93;;;10.40;;
16436;SDS011;8328;52.206;21.006;2023-12-14T12:18:59;25.33;;;10.93;;
16436;SDS011;8328;52.206;21.006;2023-12-14T12:21:24;23.13;;;9.97;;
16436;SDS011;8328;52.206;21.006;2023-12-14T12:23:50;26.60;;;11.40;;
16436;SDS011;8328;52.206;21.006;2023-12-14T12:26:16;19.53;;;9.63;;
16436;SDS011;8328;52.206;21.006;2023-12-14T12:28:42;22.73;;;10.47;;
16436;SDS011;8328;52.206;21.006;2023-12-14T12:31:08;25.83;;;11.80;;
16436;SDS011;8328;52.206;21.006;2023-12-14T12:33:34;23.97;;;11.07;;
16436;SDS011;8328;52.206;21.006;2023-12-14T12:36:02;24.73;;;11.80;;
16436;SDS011;8328;52.206;21.006;2023-12-14T12:38:28;21.90;;;10.30;;
16436;SDS011;8328;52.206;21.006;2023-12-14T12:40:55;26.80;;;11.97;;
16436;SDS011;8328;52.206;21.006;2023-12-14T12:43:21;24.80;;;11.67;;
16436;SDS011;8328;52.206;21.006;2023-12-14T12:45:47;27.67;;;12.63;;
16436;SDS011;8328;52.206;21.006;2023-12-14T12:48:13;28.80;;;13.60;;
16436;SDS011;8328;52.206;21.006;2023-12-14T12:50:40;30.50;;;12.23;;
16436;SDS011;8328;52.206;21.006;2023-12-14T12:53:06;26.73;;;11.87;;
16436;SDS011;8328;52.206;21.006;2023-12-14T12:55:32;30.33;;;13.00;;
16436;SDS011;8328;52.206;21.006;2023-12-14T12:57:59;26.03;;;12.70;;
16436;SDS011;8328;52.206;21.006;2023-12-14T13:00:29;24.67;;;12.13;;
16436;SDS011;8328;52.206;21.006;2023-12-14T13:02:55;25.47;;;11.67;;
16436;SDS011;8328;52.206;21.006;2023-12-14T13:05:21;30.67;;;13.60;;
16436;SDS011;8328;52.206;21.006;2023-12-14T13:07:49;25.13;;;12.67;;
16436;SDS011;8328;52.206;21.006;2023-12-14T13:10:16;29.23;;;13.73;;
16436;SDS011;8328;52.206;21.006;2023-12-14T13:12:44;26.93;;;14.80;;
16436;SDS011;8328;52.206;21.006;2023-12-14T13:15:09;22.23;;;10.13;;
16436;SDS011;8328;52.206;21.006;2023-12-14T13:17:35;23.07;;;11.83;;
16436;SDS011;8328;52.206;21.006;2023-12-14T13:20:01;20.57;;;10.13;;
16436;SDS011;8328;52.206;21.006;2023-12-14T13:22:26;22.50;;;10.17;;
16436;SDS011;8328;52.206;21.006;2023-12-14T13:24:52;24.30;;;10.60;;
16436;SDS011;8328;52.206;21.006;2023-12-14T13:27:19;26.90;;;12.40;;
16436;SDS011;8328;52.206;21.006;2023-12-14T13:29:45;31.97;;;13.10;;
16436;SDS011;8328;52.206;21.006;2023-12-14T13:32:11;25.07;;;13.27;;
16436;SDS011;8328;52.206;21.006;2023-12-14T13:34:37;29.20;;;12.53;;
16436;SDS011;8328;52.206;21.006;2023-12-14T13:37:03;22.47;;;12.27;;
16436;SDS011;8328;52.206;21.006;2023-12-14T13:39:30;25.03;;;11.90;;
16436;SDS011;8328;52.206;21.006;2023-12-14T13:41:59;24.77;;;11.47;;
16436;SDS011;8328;52.206;21.006;2023-12-14T13:44:26;21.10;;;10.47;;
16436;SDS011;8328;52.206;21.006;2023-12-14T13:46:52;23.23;;;10.73;;
16436;SDS011;8328;52.206;21.006;2023-12-14T13:49:18;23.30;;;11.20;;
16436;SDS011;8328;52.206;21.006;2023-12-14T13:51:44;24.07;;;11.27;;
16436;SDS011;8328;52.206;21.006;2023-12-14T13:54:10;20.47;;;10.73;;
16436;SDS011;8328;52.206;21.006;2023-12-14T13:56:36;23.67;;;10.83;;
16436;SDS011;8328;52.206;21.006;2023-12-14T13:59:02;26.00;;;12.13;;
16436;SDS011;8328;52.206;21.006;2023-12-14T14:01:27;22.73;;;11.20;;
16436;SDS011;8328;52.206;21.006;2023-12-14T14:03:54;25.63;;;11.53;;
16436;SDS011;8328;52.206;21.006;2023-12-14T14:06:19;26.60;;;11.20;;
16436;SDS011;8328;52.206;21.006;2023-12-14T14:08:45;26.47;;;12.00;;
16436;SDS011;8328;52.206;21.006;2023-12-14T14:11:11;27.30;;;11.20;;
16436;SDS011;8328;52.206;21.006;2023-12-14T14:13:37;30.47;;;11.33;;
16436;SDS011;8328;52.206;21.006;2023-12-14T14:16:04;24.17;;;11.40;;
16436;SDS011;8328;52.206;21.006;2023-12-14T14:18:31;23.47;;;11.57;;
16436;SDS011;8328;52.206;21.006;2023-12-14T14:20:57;21.13;;;10.47;;
16436;SDS011;8328;52.206;21.006;2023-12-14T14:23:24;20.20;;;9.97;;
16436;SDS011;8328;52.206;21.006;2023-12-14T14:25:51;25.23;;;10.47;;
16436;SDS011;8328;52.206;21.006;2023-12-14T14:28:22;21.17;;;10.60;;